Observation data for Morton on 02/14/2020      Previous  Date  Next       Current Mesonet Observations  Soil Data  Daily Summary Page  Observations in Plain Language
KMNS 140600Z 13014KT M01/M02 A3023 RMK A01 T10141019  RH  097%=      5-min Rain = 0
KMNS 140605Z 13013G18KT M01/M02 A3023 RMK A01 T10131019  RH  097%=      5-min Rain = 0
KMNS 140610Z 13015KT M01/M02 A3024 RMK A01 T10131019  RH  097%=      5-min Rain = 0
KMNS 140615Z 13014G19KT M01/M02 A3024 RMK A01 T10141019  RH  097%=      5-min Rain = 0
KMNS 140620Z 13014KT M01/M02 A3023 RMK A01 T10141020  RH  097%=      5-min Rain = 0
KMNS 140625Z 14011KT M01/M02 A3024 RMK A01 T10131018  RH  097%=      5-min Rain = 0
KMNS 140630Z 14013G18KT M01/M02 A3024 RMK A01 T10131018  RH  098%=      5-min Rain = 0
KMNS 140635Z 14014G20KT M02/M02 A3024 RMK A01 T10151020  RH  098%=      5-min Rain = 0
KMNS 140640Z 14016G21KT M02/M02 A3024 RMK A01 T10151019  RH  098%=      5-min Rain = 0
KMNS 140645Z 14015KT M02/M02 A3024 RMK A01 T10151020  RH  098%=      5-min Rain = 0
KMNS 140650Z 14016KT M02/M02 A3024 RMK A01 T10151019  RH  098%=      5-min Rain = 0
KMNS 140655Z 14015KT M02/M02 A3024 RMK A01 T10161019  RH  098%=      5-min Rain = 0
KMNS 140700Z 14015KT M02/M02 A3025 RMK A01 T10171020  RH  098%=      5-min Rain = 0
KMNS 140705Z 14015KT M02/M02 A3025 RMK A01 T10181020  RH  099%=      5-min Rain = 0
KMNS 140710Z 14014G19KT M02/M02 A3025 RMK A01 T10181019  RH  100%=      5-min Rain = 0
KMNS 140715Z 15016KT M02/M02 A3025 RMK A01 T10171018  RH  100%=      5-min Rain = 0
KMNS 140720Z 15016KT M02/M02 A3025 RMK A01 T10171018  RH  100%=      5-min Rain = 0
KMNS 140725Z 15015KT M02/M02 A3025 RMK A01 T10171018  RH  100%=      5-min Rain = 0
KMNS 140730Z 15012G17KT M02/M02 A3025 RMK A01 T10161018  RH  100%=      5-min Rain = 0
KMNS 140735Z 15015G21KT M02/M02 A3025 RMK A01 T10161018  RH  100%=      5-min Rain = 0
KMNS 140740Z 15015KT M02/M02 A3025 RMK A01 T10171018  RH  100%=      5-min Rain = 0
KMNS 140745Z 16013KT M02/M02 A3025 RMK A01 T10171019  RH  100%=      5-min Rain = 0
KMNS 140750Z 16012KT M02/M02 A3025 RMK A01 T10171018  RH  100%=      5-min Rain = 0
KMNS 140755Z 15013KT M02/M02 A3025 RMK A01 T10171018  RH  100%=      5-min Rain = 0
KMNS 140800Z 15012KT M02/M02 A3025 RMK A01 T10171018  RH  100%=      5-min Rain = 0
KMNS 140805Z 14012KT M02/M02 A3025 RMK A01 T10171018  RH  100%=      5-min Rain = 0
KMNS 140810Z 14013KT M02/M02 A3025 RMK A01 T10171019  RH  100%=      5-min Rain = 0
KMNS 140815Z 14014KT M02/M02 A3025 RMK A01 T10181020  RH  099%=      5-min Rain = 0
KMNS 140820Z 14012KT M02/M02 A3025 RMK A01 T10181020  RH  099%=      5-min Rain = 0
KMNS 140825Z 14011KT M02/M02 A3025 RMK A01 T10181020  RH  099%=      5-min Rain = 0
KMNS 140830Z 14011KT M02/M02 A3025 RMK A01 T10181020  RH  099%=      5-min Rain = 0
KMNS 140835Z 14011G16KT M02/M02 A3025 RMK A01 T10181020  RH  100%=      5-min Rain = 0
KMNS 140840Z 14013KT M02/M02 A3025 RMK A01 T10191021  RH  099%=      5-min Rain = 0
KMNS 140845Z 14012KT M02/M02 A3025 RMK A01 T10191020  RH  100%=      5-min Rain = 0
KMNS 140850Z 14012KT M02/M02 A3025 RMK A01 T10191020  RH  100%=      5-min Rain = 0
KMNS 140855Z 15012KT M02/M02 A3025 RMK A01 T10181020  RH  100%=      5-min Rain = 0
KMNS 140900Z 15014KT M02/M02 A3025 RMK A01 T10191020  RH  100%=      5-min Rain = 0
KMNS 140905Z 14011KT M02/M02 A3025 RMK A01 T10191020  RH  100%=      5-min Rain = 0
KMNS 140910Z 14012KT M02/M02 A3025 RMK A01 T10191020  RH  100%=      5-min Rain = 0
KMNS 140915Z 15012KT M02/M02 A3025 RMK A01 T10191020  RH  100%=      5-min Rain = 0
KMNS 140920Z 15011KT M02/M02 A3025 RMK A01 T10191020  RH  100%=      5-min Rain = 0
KMNS 140925Z 15012KT M02/M02 A3025 RMK A01 T10201021  RH  100%=      5-min Rain = 0
KMNS 140930Z 15010KT M02/M02 A3025 RMK A01 T10201021  RH  100%=      5-min Rain = 0
KMNS 140935Z 14010KT M02/M02 A3025 RMK A01 T10201021  RH  100%=      5-min Rain = 0
KMNS 140940Z 14010KT M02/M02 A3025 RMK A01 T10191020  RH  100%=      5-min Rain = 0
KMNS 140945Z 15011KT M02/M02 A3025 RMK A01 T10201021  RH  100%=      5-min Rain = 0
KMNS 140950Z 15011KT M02/M02 A3025 RMK A01 T10201021  RH  100%=      5-min Rain = 0
KMNS 140955Z 15012KT M02/M02 A3025 RMK A01 T10201021  RH  100%=      5-min Rain = 0
KMNS 141000Z 15011KT M02/M02 A3025 RMK A01 T10201022  RH  100%=      5-min Rain = 0
KMNS 141005Z 15012KT M02/M02 A3025 RMK A01 T10211022  RH  100%=      5-min Rain = 0
KMNS 141010Z 15014KT M02/M02 A3025 RMK A01 T10221023  RH  100%=      5-min Rain = 0
KMNS 141015Z 15014KT M02/M02 A3025 RMK A01 T10221023  RH  100%=      5-min Rain = 0
KMNS 141020Z 16012KT M02/M02 A3025 RMK A01 T10231024  RH  100%=      5-min Rain = 0
KMNS 141025Z 15012KT M02/M03 A3025 RMK A01 T10241025  RH  100%=      5-min Rain = 0
KMNS 141030Z 15013KT M02/M03 A3025 RMK A01 T10241025  RH  100%=      5-min Rain = 0
KMNS 141035Z 15013KT M03/M03 A3025 RMK A01 T10251026  RH  100%=      5-min Rain = 0
KMNS 141040Z 15011KT M03/M03 A3025 RMK A01 T10251026  RH  100%=      5-min Rain = 0
KMNS 141045Z 15009KT M02/M03 A3025 RMK A01 T10241025  RH  100%=      5-min Rain = 0
KMNS 141050Z 16010KT M02/M03 A3025 RMK A01 T10241025  RH  100%=      5-min Rain = 0
KMNS 141055Z 15012KT M02/M03 A3025 RMK A01 T10241025  RH  100%=      5-min Rain = 0
KMNS 141100Z 15010G15KT M02/M03 A3025 RMK A01 T10241025  RH  100%=      5-min Rain = 0
KMNS 141105Z 16009G14KT M02/M02 A3025 RMK A01 T10231024  RH  100%=      5-min Rain = 0
KMNS 141110Z 16011KT M02/M02 A3025 RMK A01 T10231024  RH  100%=      5-min Rain = 0
KMNS 141115Z 16012KT M02/M02 A3024 RMK A01 T10231024  RH  100%=      5-min Rain = 0
KMNS 141120Z 16012KT M02/M02 A3024 RMK A01 T10231024  RH  100%=      5-min Rain = 0
KMNS 141125Z 16012KT M02/M02 A3024 RMK A01 T10221023  RH  100%=      5-min Rain = 0
KMNS 141130Z 16011KT M02/M02 A3024 RMK A01 T10221023  RH  100%=      5-min Rain = 0
KMNS 141135Z 16010KT M02/M02 A3024 RMK A01 T10221023  RH  100%=      5-min Rain = 0
KMNS 141140Z 17010KT M02/M02 A3024 RMK A01 T10211022  RH  100%=      5-min Rain = 0
KMNS 141145Z 16011KT M02/M02 A3024 RMK A01 T10211022  RH  100%=      5-min Rain = 0
KMNS 141150Z 16010G15KT M02/M02 A3024 RMK A01 T10211022  RH  100%=      5-min Rain = 0
KMNS 141155Z 16011KT M02/M02 A3024 RMK A01 T10211022  RH  100%=      5-min Rain = 0
KMNS 141200Z 16010KT M02/M02 A3025 RMK A01 T10201021  RH  100%=      5-min Rain = 0
KMNS 141205Z 16010KT M02/M02 A3025 RMK A01 T10211022  RH  100%=      5-min Rain = 0
KMNS 141210Z 17010KT M02/M02 A3025 RMK A01 T10211022  RH  100%=      5-min Rain = 0
KMNS 141215Z 16011G16KT M02/M02 A3025 RMK A01 T10221023  RH  100%=      5-min Rain = 0
KMNS 141220Z 17011KT M02/M02 A3025 RMK A01 T10211022  RH  100%=      5-min Rain = 0
KMNS 141225Z 16010G16KT M02/M02 A3025 RMK A01 T10211022  RH  100%=      5-min Rain = 0
KMNS 141230Z 16010KT M02/M02 A3025 RMK A01 T10211022  RH  100%=      5-min Rain = 0
KMNS 141235Z 17012KT M02/M02 A3025 RMK A01 T10211022  RH  100%=      5-min Rain = 0
KMNS 141240Z 16011G16KT M02/M02 A3025 RMK A01 T10211022  RH  100%=      5-min Rain = 0
KMNS 141245Z 16011KT M02/M02 A3025 RMK A01 T10211022  RH  100%=      5-min Rain = 0
KMNS 141250Z 17010G15KT M02/M02 A3025 RMK A01 T10201021  RH  100%=      5-min Rain = 0
KMNS 141255Z 17013KT M02/M02 A3025 RMK A01 T10211022  RH  100%=      5-min Rain = 0
KMNS 141300Z 17012KT M02/M02 A3025 RMK A01 T10211022  RH  100%=      5-min Rain = 0
KMNS 141305Z 18012KT M02/M02 A3025 RMK A01 T10211022  RH  100%=      5-min Rain = 0
KMNS 141310Z 17011KT M02/M02 A3026 RMK A01 T10201021  RH  100%=      5-min Rain = 0
KMNS 141315Z 16010KT M02/M02 A3026 RMK A01 T10201021  RH  100%=      5-min Rain = 0
KMNS 141320Z 17011KT M02/M02 A3026 RMK A01 T10211022  RH  100%=      5-min Rain = 0
KMNS 141325Z 17011KT M02/M02 A3026 RMK A01 T10211022  RH  100%=      5-min Rain = 0
KMNS 141330Z 17013KT M02/M02 A3026 RMK A01 T10211022  RH  100%=      5-min Rain = 0
KMNS 141335Z 18012KT M02/M02 A3026 RMK A01 T10211022  RH  100%=      5-min Rain = 0
KMNS 141340Z 18011G16KT M02/M02 A3026 RMK A01 T10201021  RH  100%=      5-min Rain = 0
KMNS 141345Z 17011KT M02/M02 A3026 RMK A01 T10201021  RH  100%=      5-min Rain = 0
KMNS 141350Z 17009KT M02/M02 A3026 RMK A01 T10201021  RH  100%=      5-min Rain = 0
KMNS 141355Z 17010KT M02/M02 A3026 RMK A01 T10191020  RH  100%=      5-min Rain = 0
KMNS 141400Z 17010KT M02/M02 A3026 RMK A01 T10191020  RH  100%=      5-min Rain = 0
KMNS 141405Z 17009KT M02/M02 A3026 RMK A01 T10181019  RH  100%=      5-min Rain = 0
KMNS 141410Z 17010KT M02/M02 A3026 RMK A01 T10181019  RH  100%=      5-min Rain = 0
KMNS 141415Z 17011KT M02/M02 A3026 RMK A01 T10181019  RH  100%=      5-min Rain = 0
KMNS 141420Z 17011KT M02/M02 A3026 RMK A01 T10171018  RH  100%=      5-min Rain = 0
KMNS 141425Z 17009KT M02/M02 A3026 RMK A01 T10161017  RH  100%=      5-min Rain = 0
KMNS 141430Z 17010KT M02/M02 A3026 RMK A01 T10151016  RH  100%=      5-min Rain = 0
KMNS 141435Z 17009KT M02/M02 A3026 RMK A01 T10151016  RH  100%=      5-min Rain = 0
KMNS 141440Z 17008KT M01/M02 A3026 RMK A01 T10141015  RH  100%=      5-min Rain = 0
KMNS 141445Z 17009KT M01/M02 A3026 RMK A01 T10141015  RH  100%=      5-min Rain = 0
KMNS 141450Z 17009KT M01/M02 A3026 RMK A01 T10141015  RH  100%=      5-min Rain = 0
KMNS 141455Z 17009KT M01/M01 A3026 RMK A01 T10131014  RH  100%=      5-min Rain = 0
KMNS 141500Z 17009KT M01/M01 A3026 RMK A01 T10131014  RH  100%=      5-min Rain = 0
KMNS 141505Z 17009KT M01/M01 A3026 RMK A01 T10121014  RH  100%=      5-min Rain = 0
KMNS 141510Z 17009KT M01/M01 A3026 RMK A01 T10121013  RH  100%=      5-min Rain = 0
KMNS 141515Z 17010KT M01/M01 A3026 RMK A01 T10111012  RH  100%=      5-min Rain = 0
KMNS 141520Z 17009KT M01/M01 A3026 RMK A01 T10101011  RH  100%=      5-min Rain = 0
KMNS 141525Z 17009KT M01/M01 A3026 RMK A01 T10091010  RH  100%=      5-min Rain = 0
KMNS 141530Z 18009KT M01/M01 A3026 RMK A01 T10091010  RH  100%=      5-min Rain = 0
KMNS 141535Z 18009KT M01/M01 A3026 RMK A01 T10071009  RH  100%=      5-min Rain = 0
KMNS 141540Z 18011KT M01/M01 A3026 RMK A01 T10071008  RH  100%=      5-min Rain = 0
KMNS 141545Z 19012KT M01/M01 A3026 RMK A01 T10061008  RH  100%=      5-min Rain = 0
KMNS 141550Z 19011KT M01/M01 A3026 RMK A01 T10061007  RH  100%=      5-min Rain = 0
KMNS 141555Z 18012KT M01/M01 A3026 RMK A01 T10061007  RH  100%=      5-min Rain = 0
KMNS 141600Z 18013KT M01/M01 A3026 RMK A01 T10061007  RH  100%=      5-min Rain = 0
KMNS 141605Z 19011KT M01/M01 A3027 RMK A01 T10051006  RH  100%=      5-min Rain = 0
KMNS 141610Z 18011KT M01/M01 A3027 RMK A01 T10051006  RH  100%=      5-min Rain = 0
KMNS 141615Z 19012KT M01/M01 A3027 RMK A01 T10051006  RH  100%=      5-min Rain = 0
KMNS 141620Z 18010KT M00/M01 A3027 RMK A01 T10041005  RH  100%=      5-min Rain = 0
KMNS 141625Z 19011KT M00/M00 A3027 RMK A01 T10031004  RH  100%=      5-min Rain = 0
KMNS 141630Z 19011KT M00/M00 A3027 RMK A01 T10031004  RH  100%=      5-min Rain = 0
KMNS 141635Z 18010KT M00/M00 A3027 RMK A01 T10021003  RH  100%=      5-min Rain = 0
KMNS 141640Z 18010KT M00/M00 A3027 RMK A01 T10021003  RH  100%=      5-min Rain = 0
KMNS 141645Z 17009KT M00/M00 A3026 RMK A01 T10021004  RH  100%=      5-min Rain = 0
KMNS 141650Z 17009KT M00/M00 A3026 RMK A01 T10021004  RH  100%=      5-min Rain = 0
KMNS 141655Z 17009KT M00/M00 A3026 RMK A01 T10011003  RH  100%=      5-min Rain = 0
KMNS 141700Z 18009KT 00/00 A3026 RMK A01 T00-000-2  RH  100%=      5-min Rain = 0
KMNS 141705Z 18009KT 00/00 A3026 RMK A01 T00-000-2  RH  100%=      5-min Rain = 0
KMNS 141710Z 17009KT 00/00 A3026 RMK A01 T00-000-2  RH  100%=      5-min Rain = 0
KMNS 141715Z 17010KT 00/00 A3026 RMK A01 T00-000-2  RH  100%=      5-min Rain = 0
KMNS 141720Z 17009KT 00/M00 A3026 RMK A01 T00011001  RH  100%=      5-min Rain = 0
KMNS 141725Z 18011KT 00/00 A3026 RMK A01 T000100-0  RH  100%=      5-min Rain = 0
KMNS 141730Z 18011KT 00/M00 A3026 RMK A01 T00011001  RH  100%=      5-min Rain = 0
KMNS 141735Z 19012KT 00/00 A3026 RMK A01 T000100-0  RH  100%=      5-min Rain = 0
KMNS 141740Z 19011KT 00/00 A3026 RMK A01 T00020000  RH  100%=      5-min Rain = 0
KMNS 141745Z 18011KT 00/00 A3026 RMK A01 T00020001  RH  100%=      5-min Rain = 0
KMNS 141750Z 19011KT 00/00 A3026 RMK A01 T00030002  RH  100%=      5-min Rain = 0
KMNS 141755Z 19010KT 01/01 A3025 RMK A01 T00060005  RH  100%=      5-min Rain = 0
KMNS 141800Z 18011KT 01/00 A3025 RMK A01 T00050003  RH  100%=      5-min Rain = 0
KMNS 141805Z 19012KT 01/00 A3025 RMK A01 T00050003  RH  100%=      5-min Rain = 0
KMNS 141810Z 19011KT 01/00 A3025 RMK A01 T00060004  RH  100%=      5-min Rain = 0
KMNS 141815Z 19011KT 01/01 A3024 RMK A01 T00070005  RH  100%=      5-min Rain = 0
KMNS 141820Z 19010G16KT 01/01 A3024 RMK A01 T00080006  RH  100%=      5-min Rain = 0
KMNS 141825Z 19010KT 01/01 A3024 RMK A01 T00100008  RH  100%=      5-min Rain = 0
KMNS 141830Z 20011KT 01/01 A3023 RMK A01 T00090007  RH  100%=      5-min Rain = 0
KMNS 141835Z 20011KT 01/01 A3023 RMK A01 T00100008  RH  100%=      5-min Rain = 0
KMNS 141840Z 20012KT 01/01 A3023 RMK A01 T00100008  RH  100%=      5-min Rain = 0
KMNS 141845Z 19010KT 01/01 A3023 RMK A01 T00110010  RH  100%=      5-min Rain = 0
KMNS 141850Z 20011KT 01/01 A3023 RMK A01 T00110010  RH  100%=      5-min Rain = 0
KMNS 141855Z 20011G16KT 01/01 A3022 RMK A01 T00120010  RH  100%=      5-min Rain = 0
KMNS 141900Z 20010KT 02/01 A3022 RMK A01 T00150013  RH  100%=      5-min Rain = 0
KMNS 141905Z 20011KT 02/01 A3022 RMK A01 T00150013  RH  100%=      5-min Rain = 0
KMNS 141910Z 19010KT 02/01 A3021 RMK A01 T00160014  RH  100%=      5-min Rain = 0
KMNS 141915Z 19010KT 02/01 A3021 RMK A01 T00160014  RH  100%=      5-min Rain = 0
KMNS 141920Z 20010KT 02/01 A3021 RMK A01 T00160014  RH  100%=      5-min Rain = 0
KMNS 141925Z 20011G16KT 02/02 A3022 RMK A01 T00180016  RH  100%=      5-min Rain = 0
KMNS 141930Z 21010KT 02/02 A3021 RMK A01 T00180015  RH  099%=      5-min Rain = 0
KMNS 141935Z 18011KT 02/01 A302 RMK A01 T00190014  RH  098%=      5-min Rain = 0
KMNS 141940Z 18011KT 02/01 A302 RMK A01 T00190013  RH  098%=      5-min Rain = 0
KMNS 141945Z 19011KT 02/01 A302 RMK A01 T00200014  RH  097%=      5-min Rain = 0
KMNS 141950Z 19010KT 02/02 A3019 RMK A01 T00220015  RH  097%=      5-min Rain = 0
KMNS 141955Z 19011KT 02/01 A3019 RMK A01 T00230014  RH  095%=      5-min Rain = 0
KMNS 142000Z 19010KT 02/01 A3018 RMK A01 T00240013  RH  094%=      5-min Rain = 0
KMNS 142005Z 17011KT 02/01 A3018 RMK A01 T00240013  RH  094%=      5-min Rain = 0
KMNS 142010Z 19012KT 03/01 A3018 RMK A01 T00260014  RH  093%=      5-min Rain = 0
KMNS 142015Z 19010KT 03/01 A3017 RMK A01 T00260013  RH  092%=      5-min Rain = 0
KMNS 142020Z 17010G16KT 03/01 A3017 RMK A01 T00290014  RH  091%=      5-min Rain = 0
KMNS 142025Z 18010KT 03/01 A3016 RMK A01 T00290012  RH  090%=      5-min Rain = 0
KMNS 142030Z 19011KT 03/01 A3016 RMK A01 T00300014  RH  090%=      5-min Rain = 0
KMNS 142035Z 18010KT 03/01 A3016 RMK A01 T00290012  RH  090%=      5-min Rain = 0
KMNS 142040Z 18011KT 03/01 A3016 RMK A01 T00300014  RH  091%=      5-min Rain = 0
KMNS 142045Z 18011KT 03/01 A3016 RMK A01 T00280013  RH  091%=      5-min Rain = 0
KMNS 142050Z 18011KT 03/01 A3016 RMK A01 T00280014  RH  091%=      5-min Rain = 0
KMNS 142055Z 17011KT 03/01 A3015 RMK A01 T00290013  RH  091%=      5-min Rain = 0
KMNS 142100Z 18013KT 03/01 A3015 RMK A01 T00290013  RH  091%=      5-min Rain = 0
KMNS 142105Z 18011KT 03/01 A3015 RMK A01 T00300014  RH  090%=      5-min Rain = 0
KMNS 142110Z 18011KT 03/01 A3015 RMK A01 T00290012  RH  090%=      5-min Rain = 0
KMNS 142115Z 19011KT 03/02 A3015 RMK A01 T00330016  RH  090%=      5-min Rain = 0
KMNS 142120Z 18011KT 03/02 A3015 RMK A01 T00340015  RH  088%=      5-min Rain = 0
KMNS 142125Z 17012KT 03/01 A3014 RMK A01 T00320013  RH  089%=      5-min Rain = 0
KMNS 142130Z 18012KT 03/01 A3014 RMK A01 T00320014  RH  089%=      5-min Rain = 0
KMNS 142135Z 19013KT 03/01 A3014 RMK A01 T00340013  RH  088%=      5-min Rain = 0
KMNS 142140Z 19012KT 04/01 A3014 RMK A01 T00350013  RH  087%=      5-min Rain = 0
KMNS 142145Z 16011KT 03/01 A3014 RMK A01 T00330012  RH  087%=      5-min Rain = 0
KMNS 142150Z 17012KT 03/01 A3013 RMK A01 T00320013  RH  089%=      5-min Rain = 0
KMNS 142155Z 18012KT 03/01 A3013 RMK A01 T00320013  RH  088%=      5-min Rain = 0
KMNS 142200Z 18013KT 03/01 A3013 RMK A01 T00330012  RH  087%=      5-min Rain = 0
KMNS 142205Z 18012KT 04/01 A3013 RMK A01 T00350012  RH  086%=      5-min Rain = 0
KMNS 142210Z 17011KT 04/01 A3013 RMK A01 T00350012  RH  086%=      5-min Rain = 0
KMNS 142215Z 17011KT 03/01 A3013 RMK A01 T00340012  RH  087%=      5-min Rain = 0
KMNS 142220Z 17012G17KT 03/01 A3013 RMK A01 T00340013  RH  087%=      5-min Rain = 0
KMNS 142225Z 19011KT 04/01 A3013 RMK A01 T00360013  RH  086%=      5-min Rain = 0
KMNS 142230Z 17011KT 04/01 A3012 RMK A01 T00370012  RH  085%=      5-min Rain = 0
KMNS 142235Z 18010KT 04/01 A3012 RMK A01 T00390013  RH  084%=      5-min Rain = 0
KMNS 142240Z 16010KT 05/02 A3012 RMK A01 T00450016  RH  083%=      5-min Rain = 0
KMNS 142245Z 16010G15KT 04/01 A3012 RMK A01 T00410013  RH  083%=      5-min Rain = 0
KMNS 142250Z 17010KT 04/02 A3012 RMK A01 T00400015  RH  085%=      5-min Rain = 0
KMNS 142255Z 17010KT 04/02 A3012 RMK A01 T00410015  RH  084%=      5-min Rain = 0
KMNS 142300Z 16010KT 04/01 A3012 RMK A01 T00380012  RH  084%=      5-min Rain = 0
KMNS 142305Z 16010KT 04/01 A3012 RMK A01 T00390013  RH  084%=      5-min Rain = 0
KMNS 142310Z 17010KT 04/01 A3012 RMK A01 T00390013  RH  085%=      5-min Rain = 0
KMNS 142315Z 16010KT 04/01 A3011 RMK A01 T00380013  RH  085%=      5-min Rain = 0
KMNS 142320Z 17010KT 04/01 A3011 RMK A01 T00380012  RH  084%=      5-min Rain = 0
KMNS 142325Z 17010KT 04/01 A3011 RMK A01 T00390013  RH  084%=      5-min Rain = 0
KMNS 142330Z 17010KT 04/01 A3011 RMK A01 T00380012  RH  084%=      5-min Rain = 0
KMNS 142335Z 17009KT 04/01 A3011 RMK A01 T00390013  RH  085%=      5-min Rain = 0
KMNS 142340Z 17010G15KT 04/01 A3011 RMK A01 T00390012  RH  084%=      5-min Rain = 0
KMNS 142345Z 17010KT 04/01 A3011 RMK A01 T00400013  RH  084%=      5-min Rain = 0
KMNS 142350Z 17010KT 04/01 A3011 RMK A01 T00410014  RH  084%=      5-min Rain = 0
KMNS 142355Z 17011KT 04/01 A3011 RMK A01 T00420013  RH  083%=      5-min Rain = 0
KMNS 150000Z 17011KT 04/01 A3011 RMK A01 T00420013  RH  082%=      5-min Rain = 0
KMNS 150005Z 16010KT 04/01 A3011 RMK A01 T00410012  RH  083%=      5-min Rain = 0
KMNS 150010Z 16010KT 04/01 A3011 RMK A01 T00390012  RH  084%=      5-min Rain = 0
KMNS 150015Z 15010KT 04/01 A3011 RMK A01 T00370011  RH  084%=      5-min Rain = 0
KMNS 150020Z 16009KT 04/01 A3011 RMK A01 T00350010  RH  085%=      5-min Rain = 0
KMNS 150025Z 15009KT 03/01 A3011 RMK A01 T00330010  RH  086%=      5-min Rain = 0
KMNS 150030Z 15009KT 03/01 A3011 RMK A01 T00310009  RH  087%=      5-min Rain = 0
KMNS 150035Z 15009KT 03/01 A3011 RMK A01 T00300009  RH  087%=      5-min Rain = 0
KMNS 150040Z 15010KT 03/01 A3011 RMK A01 T00300009  RH  088%=      5-min Rain = 0
KMNS 150045Z 15010KT 03/01 A3011 RMK A01 T00290008  RH  088%=      5-min Rain = 0
KMNS 150050Z 15010KT 03/01 A3011 RMK A01 T00270008  RH  088%=      5-min Rain = 0
KMNS 150055Z 15010KT 03/01 A3011 RMK A01 T00260007  RH  089%=      5-min Rain = 0
KMNS 150100Z 15011KT 03/01 A3012 RMK A01 T00250007  RH  089%=      5-min Rain = 0
KMNS 150105Z 15010KT 02/01 A3012 RMK A01 T00230007  RH  090%=      5-min Rain = 0
KMNS 150110Z 15009KT 02/01 A3012 RMK A01 T00210006  RH  091%=      5-min Rain = 0
KMNS 150115Z 15008KT 02/01 A3012 RMK A01 T00190005  RH  092%=      5-min Rain = 0
KMNS 150120Z 15007KT 02/01 A3012 RMK A01 T00180005  RH  093%=      5-min Rain = 0
KMNS 150125Z 15007KT 02/01 A3012 RMK A01 T00170005  RH  093%=      5-min Rain = 0
KMNS 150130Z 15008KT 02/01 A3012 RMK A01 T00160005  RH  094%=      5-min Rain = 0
KMNS 150135Z 15009KT 01/00 A3012 RMK A01 T00140004  RH  094%=      5-min Rain = 0
KMNS 150140Z 15010KT 01/00 A3012 RMK A01 T00130004  RH  095%=      5-min Rain = 0
KMNS 150145Z 15009KT 01/00 A3012 RMK A01 T00110003  RH  096%=      5-min Rain = 0
KMNS 150150Z 16009KT 01/00 A3012 RMK A01 T00100003  RH  096%=      5-min Rain = 0
KMNS 150155Z 16010KT 01/00 A3012 RMK A01 T00100004  RH  097%=      5-min Rain = 0
KMNS 150200Z 16010KT 01/00 A3011 RMK A01 T00100004  RH  097%=      5-min Rain = 0
KMNS 150205Z 16010KT 01/01 A3012 RMK A01 T00100005  RH  098%=      5-min Rain = 0
KMNS 150210Z 16009KT 01/01 A3012 RMK A01 T00090005  RH  098%=      5-min Rain = 0
KMNS 150215Z 16009KT 01/01 A3012 RMK A01 T00090005  RH  098%=      5-min Rain = 0
KMNS 150220Z 16009KT 01/01 A3012 RMK A01 T00090005  RH  099%=      5-min Rain = 0
KMNS 150225Z 16008KT 01/01 A3012 RMK A01 T00080005  RH  099%=      5-min Rain = 0
KMNS 150230Z 16008KT 01/01 A3012 RMK A01 T00090006  RH  099%=      5-min Rain = 0
KMNS 150235Z 17008KT 01/01 A3012 RMK A01 T00080006  RH  099%=      5-min Rain = 0
KMNS 150240Z 17008KT 01/01 A3012 RMK A01 T00090006  RH  099%=      5-min Rain = 0
KMNS 150245Z 17008KT 01/01 A3012 RMK A01 T00100008  RH  100%=      5-min Rain = 0
KMNS 150250Z 17008KT 01/01 A3012 RMK A01 T00110008  RH  099%=      5-min Rain = 0
KMNS 150255Z 17009KT 01/01 A3012 RMK A01 T00130010  RH  099%=      5-min Rain = 0
KMNS 150300Z 17009KT 02/01 A3011 RMK A01 T00150012  RH  099%=      5-min Rain = 0
KMNS 150305Z 17010KT 02/01 A3012 RMK A01 T00160012  RH  098%=      5-min Rain = 0
KMNS 150310Z 17010KT 02/01 A3011 RMK A01 T00170011  RH  098%=      5-min Rain = 0
KMNS 150315Z 17011KT 02/01 A3011 RMK A01 T00180012  RH  097%=      5-min Rain = 0
KMNS 150320Z 17012G17KT 02/01 A3011 RMK A01 T00190012  RH  096%=      5-min Rain = 0
KMNS 150325Z 18013KT 02/01 A3011 RMK A01 T00210012  RH  096%=      5-min Rain = 0
KMNS 150330Z 18013KT 02/01 A3011 RMK A01 T00220013  RH  095%=      5-min Rain = 0
KMNS 150335Z 18014KT 02/01 A3011 RMK A01 T00230013  RH  094%=      5-min Rain = 0
KMNS 150340Z 18013KT 03/01 A3011 RMK A01 T00260014  RH  094%=      5-min Rain = 0
KMNS 150345Z 18014KT 03/02 A3011 RMK A01 T00280015  RH  093%=      5-min Rain = 0
KMNS 150350Z 18014G19KT 03/02 A3011 RMK A01 T00290016  RH  092%=      5-min Rain = 0
KMNS 150355Z 18014KT 03/02 A3011 RMK A01 T00300016  RH  092%=      5-min Rain = 0
KMNS 150400Z 18013G18KT 03/02 A3011 RMK A01 T00300015  RH  091%=      5-min Rain = 0
KMNS 150405Z 18013G18KT 03/02 A3011 RMK A01 T00300015  RH  091%=      5-min Rain = 0
KMNS 150410Z 18014KT 03/02 A3011 RMK A01 T00300015  RH  091%=      5-min Rain = 0
KMNS 150415Z 18014G19KT 03/01 A301 RMK A01 T00280014  RH  091%=      5-min Rain = 0
KMNS 150420Z 18014KT 03/02 A301 RMK A01 T00290015  RH  092%=      5-min Rain = 0
KMNS 150425Z 18014KT 03/02 A301 RMK A01 T00290015  RH  091%=      5-min Rain = 0
KMNS 150430Z 18016KT 03/02 A301 RMK A01 T00300015  RH  091%=      5-min Rain = 0
KMNS 150435Z 18015G22KT 03/01 A301 RMK A01 T00300014  RH  091%=      5-min Rain = 0
KMNS 150440Z 18014KT 03/01 A301 RMK A01 T00290014  RH  091%=      5-min Rain = 0
KMNS 150445Z 18015KT 03/01 A301 RMK A01 T00290014  RH  091%=      5-min Rain = 0
KMNS 150450Z 18015KT 03/01 A301 RMK A01 T00300014  RH  091%=      5-min Rain = 0
KMNS 150455Z 18014KT 03/01 A301 RMK A01 T00300014  RH  091%=      5-min Rain = 0
KMNS 150500Z 18014KT 03/01 A301 RMK A01 T00290014  RH  091%=      5-min Rain = 0
KMNS 150505Z 18013G18KT 03/01 A301 RMK A01 T00290014  RH  091%=      5-min Rain = 0
KMNS 150510Z 18014KT 03/02 A301 RMK A01 T00310016  RH  091%=      5-min Rain = 0
KMNS 150515Z 18014KT 03/02 A3009 RMK A01 T00320016  RH  091%=      5-min Rain = 0
KMNS 150520Z 18013KT 03/02 A3009 RMK A01 T00320016  RH  091%=      5-min Rain = 0
KMNS 150525Z 18013KT 03/02 A3009 RMK A01 T00320016  RH  091%=      5-min Rain = 0
KMNS 150530Z 19013KT 03/02 A3009 RMK A01 T00320016  RH  091%=      5-min Rain = 0
KMNS 150535Z 19014KT 03/02 A3009 RMK A01 T00320016  RH  091%=      5-min Rain = 0
KMNS 150540Z 19014KT 03/02 A3009 RMK A01 T00320017  RH  091%=      5-min Rain = 0
KMNS 150545Z 19013G18KT 03/02 A3009 RMK A01 T00310016  RH  091%=      5-min Rain = 0
KMNS 150550Z 19014KT 03/02 A3009 RMK A01 T00320017  RH  091%=      5-min Rain = 0
KMNS 150555Z 19013G18KT 03/02 A3009 RMK A01 T00320017  RH  091%=      5-min Rain = 0

Page generated in 0.0092 seconds.